createdAt,value
2022-11-09T00:00:07.189Z,100161.28
2022-11-09T00:00:29.643Z,100170.88
2022-11-09T00:00:52.025Z,100154.09
2022-11-09T00:01:13.611Z,100164.50
2022-11-09T00:01:35.223Z,100168.91
2022-11-09T00:01:57.779Z,100166.22
2022-11-09T00:02:19.321Z,100160.00
2022-11-09T00:02:43.942Z,100169.25
2022-11-09T00:03:05.830Z,100168.28
2022-11-09T00:03:28.342Z,100172.81
2022-11-09T00:03:54.749Z,100169.25
2022-11-09T00:04:16.362Z,100166.56
2022-11-09T00:04:38.896Z,100171.09
2022-11-09T00:05:00.465Z,100177.31
2022-11-09T00:05:22.039Z,100174.72
2022-11-09T00:05:44.584Z,100169.34
2022-11-09T00:06:06.266Z,100168.50
2022-11-09T00:06:28.802Z,100171.94
2022-11-09T00:06:52.740Z,100170.97
2022-11-09T00:07:15.606Z,100164.63
2022-11-09T00:07:37.171Z,100160.94
2022-11-09T00:07:58.739Z,100174.53
2022-11-09T00:08:20.273Z,100170.00
2022-11-09T00:08:44.150Z,100168.28
2022-11-09T00:09:08.350Z,100172.56
2022-11-09T00:09:30.279Z,100170.00
2022-11-09T00:09:51.964Z,100167.19
2022-11-09T00:10:14.738Z,100164.41
2022-11-09T00:10:36.370Z,100167.09
2022-11-09T00:11:03.123Z,100162.91
2022-11-09T00:11:25.834Z,100154.09
2022-11-09T00:11:47.401Z,100159.25
2022-11-09T00:12:09.065Z,100161.19
2022-11-09T00:12:30.627Z,100156.78
2022-11-09T00:12:53.219Z,100163.97
2022-11-09T00:13:14.808Z,100162.06
2022-11-09T00:13:37.871Z,100155.38
2022-11-09T00:13:59.433Z,100156.91
2022-11-09T00:14:22.132Z,100163.25
2022-11-09T00:14:43.742Z,100165.94
2022-11-09T00:15:06.002Z,100154.94
2022-11-09T00:15:27.705Z,100162.16
2022-11-09T00:15:49.361Z,100161.44
2022-11-09T00:16:13.827Z,100163.13
2022-11-09T00:16:35.409Z,100155.97
2022-11-09T00:16:57.097Z,100157.44
2022-11-09T00:17:19.672Z,100153.19
2022-11-09T00:17:41.236Z,100157.34
2022-11-09T00:18:02.850Z,100152.31
2022-11-09T00:18:24.552Z,100154.25
2022-11-09T00:18:47.541Z,100163.78
2022-11-09T00:19:09.244Z,100154.66
2022-11-09T00:19:30.832Z,100155.72
2022-11-09T00:19:52.486Z,100160.13
2022-11-09T00:20:15.083Z,100167.47
2022-11-09T00:20:36.664Z,100164.78
2022-11-09T00:20:58.323Z,100158.41
2022-11-09T00:21:22.607Z,100128.59
2022-11-09T00:21:44.172Z,100156.94
2022-11-09T00:22:05.740Z,100163.41
2022-11-09T00:22:28.340Z,100163.41
2022-11-09T00:22:50.223Z,100149.63
2022-11-09T00:23:11.762Z,100161.69
2022-11-09T00:23:33.842Z,100162.53
2022-11-09T00:23:58.491Z,100161.56
2022-11-09T00:24:20.042Z,100162.19
2022-11-09T00:24:41.592Z,100163.16
2022-11-09T00:25:03.536Z,100157.78
2022-11-09T00:25:25.192Z,100155.09
2022-11-09T00:25:48.559Z,100163.16
2022-11-09T00:26:12.015Z,100163.16
2022-11-09T00:26:33.615Z,100162.72
2022-11-09T00:26:56.160Z,100163.72
2022-11-09T00:27:18.006Z,100155.88
2022-11-09T00:27:39.776Z,100166.22
2022-11-09T00:28:01.339Z,100152.66
2022-11-09T00:28:23.864Z,100165.13
2022-11-09T00:28:45.460Z,100163.84
2022-11-09T00:29:07.126Z,100161.81
2022-11-09T00:29:28.835Z,100157.16
2022-11-09T00:29:51.378Z,100160.84
2022-11-09T00:30:13.920Z,100157.41
2022-11-09T00:30:35.564Z,100151.16
2022-11-09T00:30:59.357Z,100153.75
2022-11-09T00:31:24.308Z,100154.63
2022-11-09T00:31:45.891Z,100161.41
2022-11-09T00:32:10.013Z,100153.97
2022-11-09T00:32:31.622Z,100147.06
2022-11-09T00:32:54.208Z,100151.41
2022-11-09T00:33:16.002Z,100156.56
2022-11-09T00:33:38.972Z,100145.25
2022-11-09T00:34:00.547Z,100155.91
2022-11-09T00:34:23.109Z,100155.03
2022-11-09T00:34:44.736Z,100150.34
2022-11-09T00:35:06.785Z,100157.19
2022-11-09T00:35:29.903Z,100158.25
2022-11-09T00:35:52.491Z,100157.63
2022-11-09T00:36:14.139Z,100159.59
2022-11-09T00:36:35.747Z,100159.44
2022-11-09T00:36:57.345Z,100159.44
2022-11-09T00:37:19.943Z,100160.13
2022-11-09T00:37:41.583Z,100168.81
2022-11-09T00:38:05.050Z,100159.34
2022-11-09T00:38:26.764Z,100149.78
2022-11-09T00:38:50.747Z,100160.84
2022-11-09T00:39:13.760Z,100156.44
2022-11-09T00:39:35.357Z,100158.16
2022-11-09T00:39:57.080Z,100158.06
2022-11-09T00:40:19.626Z,100161.94
2022-11-09T00:40:41.282Z,100158.38
2022-11-09T00:41:03.427Z,100156.66
2022-11-09T00:41:27.277Z,100161.06
2022-11-09T00:41:51.226Z,100158.25
2022-11-09T00:42:12.765Z,100165.34
2022-11-09T00:42:34.322Z,100160.84
2022-11-09T00:42:55.888Z,100159.13
2022-11-09T00:43:19.020Z,100160.41
2022-11-09T00:43:41.835Z,100162.53
2022-11-09T00:44:03.632Z,100153.31
2022-11-09T00:44:25.377Z,100150.31
2022-11-09T00:44:46.932Z,100156.22
2022-11-09T00:45:10.114Z,100156.03
2022-11-09T00:45:31.686Z,100155.91
2022-11-09T00:45:53.327Z,100152.47
2022-11-09T00:46:15.966Z,100157.63
2022-11-09T00:46:39.271Z,100160.94
2022-11-09T00:47:01.143Z,100155.16
2022-11-09T00:47:22.786Z,100153.97
2022-11-09T00:47:44.535Z,100157.63
2022-11-09T00:48:08.218Z,100151.00
2022-11-09T00:48:30.543Z,100145.63
2022-11-09T00:48:54.290Z,100153.13
2022-11-09T00:49:15.879Z,100162.81
2022-11-09T00:49:38.476Z,100154.22
2022-11-09T00:50:00.065Z,100152.03
2022-11-09T00:50:21.636Z,100146.56
2022-11-09T00:50:49.586Z,100152.03
2022-11-09T00:51:13.024Z,100149.25
2022-11-09T00:51:35.835Z,100151.94
2022-11-09T00:51:57.668Z,100148.31
2022-11-09T00:52:19.320Z,100147.31
2022-11-09T00:52:41.966Z,100159.59
2022-11-09T00:53:03.633Z,100158.50
2022-11-09T00:53:26.145Z,100162.81
2022-11-09T00:53:49.083Z,100157.53
2022-11-09T00:54:10.915Z,100170.84
2022-11-09T00:54:33.838Z,100161.06
2022-11-09T00:54:55.444Z,100161.06
2022-11-09T00:55:17.994Z,100166.31
2022-11-09T00:55:39.571Z,100161.94
2022-11-09T00:56:02.626Z,100161.81
2022-11-09T00:56:26.255Z,100167.31
2022-11-09T00:56:47.785Z,100162.91
2022-11-09T00:57:09.502Z,100164.09
2022-11-09T00:57:31.208Z,100162.81
2022-11-09T00:57:54.619Z,100159.34
2022-11-09T00:58:17.955Z,100157.19
2022-11-09T00:58:40.834Z,100162.81
2022-11-09T00:59:03.368Z,100166.66
2022-11-09T00:59:24.954Z,100170.09
2022-11-09T00:59:46.608Z,100170.97
2022-11-09T01:00:09.207Z,100174.50
2022-11-09T01:00:31.738Z,100173.66
2022-11-09T01:00:54.180Z,100157.09
2022-11-09T01:01:17.477Z,100166.44
2022-11-09T01:01:39.230Z,100157.72
2022-11-09T01:02:01.772Z,100172.56
2022-11-09T01:02:23.376Z,100171.06
2022-11-09T01:02:44.984Z,100178.47
2022-11-09T01:03:06.589Z,100167.63
2022-11-09T01:03:29.100Z,100163.44
2022-11-09T01:03:50.791Z,100168.47
2022-11-09T01:04:12.487Z,100168.38
2022-11-09T01:04:34.132Z,100165.59
2022-11-09T01:04:56.799Z,100165.69
2022-11-09T01:05:20.028Z,100163.09
2022-11-09T01:05:43.966Z,100173.75
2022-11-09T01:06:06.750Z,100170.31
2022-11-09T01:06:29.369Z,100161.50
2022-11-09T01:06:51.078Z,100167.63
2022-11-09T01:07:12.767Z,100168.47
2022-11-09T01:07:36.980Z,100166.78
2022-11-09T01:07:59.814Z,100165.16
2022-11-09T01:08:21.365Z,100174.59
2022-11-09T01:08:43.033Z,100169.34
2022-11-09T01:09:05.001Z,100166.66
2022-11-09T01:09:27.624Z,100168.69
2022-11-09T01:09:51.255Z,100173.00
2022-11-09T01:10:13.037Z,100163.56
2022-11-09T01:10:34.882Z,100171.47
2022-11-09T01:10:56.751Z,100164.09
2022-11-09T01:11:20.971Z,100167.09
2022-11-09T01:11:42.575Z,100166.78
2022-11-09T01:12:04.351Z,100170.31
2022-11-09T01:12:25.976Z,100176.44
2022-11-09T01:12:48.533Z,100172.88
2022-11-09T01:13:11.478Z,100166.88
2022-11-09T01:13:33.609Z,100163.56
2022-11-09T01:13:55.618Z,100159.34
2022-11-09T01:14:18.194Z,100159.16
2022-11-09T01:14:39.824Z,100162.47
2022-11-09T01:15:01.531Z,100157.53
2022-11-09T01:15:23.163Z,100172.16
2022-11-09T01:15:47.533Z,100169.66
2022-11-09T01:16:11.365Z,100164.91
2022-11-09T01:16:32.959Z,100169.25
2022-11-09T01:16:55.510Z,100165.88
2022-11-09T01:17:17.079Z,100168.47
2022-11-09T01:17:38.663Z,100171.38
2022-11-09T01:18:00.298Z,100166.09
2022-11-09T01:18:22.026Z,100164.28
2022-11-09T01:18:44.616Z,100166.97
2022-11-09T01:19:06.509Z,100158.13
2022-11-09T01:19:28.096Z,100165.47
2022-11-09T01:19:49.924Z,100167.06
2022-11-09T01:20:13.116Z,100160.81
2022-11-09T01:20:34.689Z,100154.72
2022-11-09T01:20:56.301Z,100167.06
2022-11-09T01:21:18.620Z,100163.50
2022-11-09T01:21:41.212Z,100159.75
2022-11-09T01:22:02.811Z,100164.19
2022-11-09T01:22:24.398Z,100162.53
2022-11-09T01:22:46.000Z,100159.22
2022-11-09T01:23:07.966Z,100165.56
2022-11-09T01:23:30.588Z,100162.00
2022-11-09T01:23:53.416Z,100162.63
2022-11-09T01:24:14.992Z,100160.81
2022-11-09T01:24:37.566Z,100157.06
2022-11-09T01:25:00.584Z,100153.53
2022-11-09T01:25:22.133Z,100165.78
2022-11-09T01:25:44.301Z,100157.72
2022-11-09T01:26:09.019Z,100168.47
2022-11-09T01:26:31.004Z,100165.88
2022-11-09T01:26:52.603Z,100154.16
2022-11-09T01:27:16.858Z,100146.84
2022-11-09T01:27:38.413Z,100160.34
2022-11-09T01:28:00.915Z,100163.97
2022-11-09T01:28:22.520Z,100160.09
2022-11-09T01:28:55.478Z,100155.38
2022-11-09T01:29:17.119Z,100167.63
2022-11-09T01:29:38.728Z,100168.38
2022-11-09T01:30:00.313Z,100171.06
2022-11-09T01:30:21.944Z,100172.69
2022-11-09T01:30:44.467Z,100164.50
2022-11-09T01:31:08.210Z,100162.81
2022-11-09T01:31:29.906Z,100171.59
2022-11-09T01:31:55.056Z,100169.75
2022-11-09T01:32:16.607Z,100167.94
2022-11-09T01:32:38.243Z,100167.72
2022-11-09T01:33:00.338Z,100157.94
2022-11-09T01:33:22.206Z,100166.22
2022-11-09T01:33:45.466Z,100160.13
2022-11-09T01:34:07.073Z,100167.94
2022-11-09T01:34:29.080Z,100168.66
2022-11-09T01:34:50.642Z,100165.16
2022-11-09T01:35:12.220Z,100159.78
2022-11-09T01:35:35.476Z,100169.66
2022-11-09T01:36:02.436Z,100163.75
2022-11-09T01:36:26.152Z,100162.81
2022-11-09T01:36:51.458Z,100166.22
2022-11-09T01:37:13.038Z,100164.28
2022-11-09T01:37:34.645Z,100155.25
2022-11-09T01:37:56.351Z,100167.72
2022-11-09T01:38:18.985Z,100168.66
2022-11-09T01:38:40.704Z,100164.28
2022-11-09T01:39:03.838Z,100162.66
2022-11-09T01:39:25.436Z,100160.84
2022-11-09T01:39:47.969Z,100166.22
2022-11-09T01:40:12.159Z,100155.47
2022-11-09T01:40:35.608Z,100163.00
2022-11-09T01:40:57.604Z,100157.09
2022-11-09T01:41:22.418Z,100172.69
2022-11-09T01:41:43.999Z,100163.63
2022-11-09T01:42:05.682Z,100168.03
2022-11-09T01:42:28.653Z,100171.59
2022-11-09T01:42:51.213Z,100170.63
2022-11-09T01:43:16.589Z,100169.53
2022-11-09T01:43:38.450Z,100170.41
2022-11-09T01:44:08.488Z,100172.13
2022-11-09T01:44:38.776Z,100174.03
2022-11-09T01:45:21.522Z,100171.38
2022-11-09T01:45:45.948Z,100172.34
2022-11-09T01:46:17.254Z,100168.66
2022-11-09T01:46:44.229Z,100175.03
2022-11-09T01:47:11.381Z,100175.78
2022-11-09T01:47:33.943Z,100165.03
2022-11-09T01:48:02.698Z,100164.06
2022-11-09T01:48:33.543Z,100160.50
2022-11-09T01:49:01.053Z,100160.19
2022-11-09T01:49:33.552Z,100166.41
2022-11-09T01:49:59.075Z,100156.78
2022-11-09T01:50:27.643Z,100169.09
2022-11-09T01:50:56.804Z,100160.19
2022-11-09T01:51:23.876Z,100163.84
2022-11-09T01:51:51.780Z,100144.72
2022-11-09T01:52:18.884Z,100170.72
2022-11-09T01:52:44.159Z,100164.81
2022-11-09T01:53:10.205Z,100169.75
2022-11-09T01:53:38.397Z,100171.38
2022-11-09T01:54:05.402Z,100164.25
2022-11-09T01:54:29.633Z,100167.72
2022-11-09T01:54:58.263Z,100165.56
2022-11-09T01:55:24.217Z,100166.22
2022-11-09T01:55:48.583Z,100173.28
2022-11-09T01:56:13.655Z,100170.72
2022-11-09T01:56:37.259Z,100165.34
2022-11-09T01:57:03.288Z,100175.00
2022-11-09T01:57:28.133Z,100172.31
2022-11-09T01:57:54.828Z,100170.72
2022-11-09T01:58:21.621Z,100172.22
2022-11-09T01:58:47.698Z,100171.47
2022-11-09T01:59:15.623Z,100167.06
2022-11-09T01:59:42.938Z,100170.50
2022-11-09T02:00:07.401Z,100174.06
2022-11-09T02:00:38.933Z,100172.22
2022-11-09T02:01:01.124Z,100175.00
2022-11-09T02:01:22.868Z,100174.16
2022-11-09T02:01:46.796Z,100172.56
2022-11-09T02:02:09.411Z,100172.31
2022-11-09T02:02:36.201Z,100170.59
2022-11-09T02:03:04.658Z,100173.84
2022-11-09T02:03:34.507Z,100177.06
2022-11-09T02:03:59.984Z,100176.97
2022-11-09T02:04:24.763Z,100174.16
2022-11-09T02:04:52.947Z,100176.84
2022-11-09T02:05:17.961Z,100174.06
2022-11-09T02:05:42.898Z,100166.84
2022-11-09T02:06:08.043Z,100170.41
2022-11-09T02:06:32.836Z,100173.94
2022-11-09T02:06:57.281Z,100173.19
2022-11-09T02:07:21.574Z,100163.41
2022-11-09T02:07:44.066Z,100171.47
2022-11-09T02:08:07.102Z,100172.31
2022-11-09T02:08:32.349Z,100173.19
2022-11-09T02:08:56.459Z,100164.25
2022-11-09T02:09:25.592Z,100167.91
2022-11-09T02:09:52.850Z,100169.75
2022-11-09T02:10:22.149Z,100173.19
2022-11-09T02:10:52.925Z,100169.53
2022-11-09T02:11:20.015Z,100170.41
2022-11-09T02:11:41.603Z,100165.03
2022-11-09T02:12:03.523Z,100171.38
2022-11-09T02:12:28.091Z,100113.59
2022-11-09T02:12:52.705Z,100165.13
2022-11-09T02:13:18.378Z,100169.63
2022-11-09T02:13:45.046Z,100163.19
2022-11-09T02:14:07.582Z,100157.31
2022-11-09T02:14:32.513Z,100159.75
2022-11-09T02:14:54.924Z,100157.94
2022-11-09T02:15:17.090Z,100162.44
2022-11-09T02:15:42.878Z,100160.72
2022-11-09T02:16:10.383Z,100162.53
2022-11-09T02:16:32.683Z,100158.03
2022-11-09T02:16:54.410Z,100147.63
2022-11-09T02:17:16.417Z,100155.25
2022-11-09T02:17:41.504Z,100162.44
2022-11-09T02:18:04.173Z,100162.53
2022-11-09T02:18:28.094Z,100159.00
2022-11-09T02:18:52.648Z,100153.63
2022-11-09T02:19:15.404Z,100159.97
2022-11-09T02:19:37.010Z,100169.75
2022-11-09T02:19:58.910Z,100153.50
2022-11-09T02:20:22.315Z,100161.56
2022-11-09T02:20:45.700Z,100160.63
2022-11-09T02:21:08.228Z,100164.25
2022-11-09T02:21:31.855Z,100166.09
2022-11-09T02:21:53.615Z,100171.38
2022-11-09T02:22:15.609Z,100177.81
2022-11-09T02:22:38.159Z,100171.78
2022-11-09T02:23:00.077Z,100166.53
2022-11-09T02:23:24.378Z,100166.53
2022-11-09T02:23:46.368Z,100163.72
2022-11-09T02:24:09.106Z,100159.31
2022-11-09T02:24:32.770Z,100160.19
2022-11-09T02:24:56.546Z,100164.69
2022-11-09T02:25:18.696Z,100163.09
2022-11-09T02:25:40.331Z,100157.72
2022-11-09T02:26:09.886Z,100157.81
2022-11-09T02:26:36.243Z,100162.88
2022-11-09T02:26:58.446Z,100158.59
2022-11-09T02:27:21.213Z,100170.06
2022-11-09T02:27:44.798Z,100162.25
2022-11-09T02:28:08.023Z,100173.75
2022-11-09T02:28:32.075Z,100170.19
2022-11-09T02:28:55.516Z,100163.19
2022-11-09T02:29:21.752Z,100162.88
2022-11-09T02:29:46.620Z,100172.03
2022-11-09T02:30:09.382Z,100172.66
2022-11-09T02:30:33.263Z,100169.00
2022-11-09T02:30:57.143Z,100171.78
2022-11-09T02:31:21.860Z,100173.63
2022-11-09T02:31:48.271Z,100171.06
2022-11-09T02:32:13.838Z,100171.78
2022-11-09T02:32:36.423Z,100168.03
2022-11-09T02:32:58.303Z,100169.75
2022-11-09T02:33:20.296Z,100167.06
2022-11-09T02:33:44.309Z,100174.06
2022-11-09T02:34:10.221Z,100163.53
2022-11-09T02:34:31.972Z,100167.91
2022-11-09T02:34:53.712Z,100160.84
2022-11-09T02:35:15.311Z,100175.88
2022-11-09T02:35:39.218Z,100166.09
2022-11-09T02:36:00.888Z,100163.31
2022-11-09T02:36:23.206Z,100158.25
2022-11-09T02:36:45.647Z,100162.53
2022-11-09T02:37:13.592Z,100161.91
2022-11-09T02:37:38.572Z,100158.47
2022-11-09T02:38:02.310Z,100153.31
2022-11-09T02:38:23.947Z,100162.13
2022-11-09T02:38:46.543Z,100164.28
2022-11-09T02:39:10.585Z,100154.41
2022-11-09T02:39:32.764Z,100150.34
2022-11-09T02:39:58.223Z,100160.50
2022-11-09T02:40:27.031Z,100159.66
2022-11-09T02:40:51.935Z,100163.09
2022-11-09T02:41:14.714Z,100163.09
2022-11-09T02:41:44.186Z,100155.03
2022-11-09T02:42:10.481Z,100160.19
2022-11-09T02:42:35.448Z,100149.88
2022-11-09T02:42:57.662Z,100160.19
2022-11-09T02:43:21.047Z,100154.94
2022-11-09T02:43:43.267Z,100159.44
2022-11-09T02:44:05.349Z,100164.81
2022-11-09T02:44:30.129Z,100162.25
2022-11-09T02:44:57.216Z,100156.34
2022-11-09T02:45:18.982Z,100162.25
2022-11-09T02:45:40.789Z,100168.38
2022-11-09T02:46:02.697Z,100163.97
2022-11-09T02:46:26.874Z,100160.31
2022-11-09T02:46:48.531Z,100167.38
2022-11-09T02:47:10.183Z,100165.69
2022-11-09T02:47:31.751Z,100163.09
2022-11-09T02:47:54.436Z,100170.06
2022-11-09T02:48:16.044Z,100166.66
2022-11-09T02:48:37.661Z,100167.38
2022-11-09T02:48:59.355Z,100174.72
2022-11-09T02:49:22.313Z,100173.31
2022-11-09T02:49:43.976Z,100169.66
2022-11-09T02:50:06.223Z,100170.41
2022-11-09T02:50:27.933Z,100163.31
2022-11-09T02:50:51.815Z,100159.66
2022-11-09T02:51:13.358Z,100161.47
2022-11-09T02:51:35.842Z,100158.25
2022-11-09T02:51:57.453Z,100156.97
2022-11-09T02:52:19.145Z,100166.00
2022-11-09T02:52:42.034Z,100163.53
2022-11-09T02:53:03.987Z,100157.94
2022-11-09T02:53:28.663Z,100158.91
2022-11-09T02:53:50.249Z,100158.69
2022-11-09T02:54:12.911Z,100150.88
2022-11-09T02:54:35.434Z,100160.84
2022-11-09T02:54:58.473Z,100159.25
2022-11-09T02:55:20.076Z,100146.16
2022-11-09T02:55:41.697Z,100159.97
2022-11-09T02:56:04.669Z,100155.56
2022-11-09T02:56:26.327Z,100158.25
2022-11-09T02:56:48.034Z,100151.06
2022-11-09T02:57:09.644Z,100156.56
2022-11-09T02:57:33.214Z,100154.06
2022-11-09T02:57:55.969Z,100162.56
2022-11-09T02:58:18.132Z,100164.28
2022-11-09T02:58:39.777Z,100164.28
2022-11-09T02:59:03.202Z,100168.81
2022-11-09T02:59:25.069Z,100158.91
2022-11-09T02:59:47.039Z,100160.63
2022-11-09T03:00:10.172Z,100171.38
2022-11-09T03:00:32.782Z,100172.13
2022-11-09T03:00:54.547Z,100164.28
2022-11-09T03:01:18.524Z,100166.75
2022-11-09T03:01:40.183Z,100161.28
2022-11-09T03:02:02.828Z,100164.81
2022-11-09T03:02:25.783Z,100170.31
2022-11-09T03:02:47.473Z,100172.34
2022-11-09T03:03:10.414Z,100163.53
2022-11-09T03:03:33.598Z,100166.00
2022-11-09T03:03:55.348Z,100160.63
2022-11-09T03:04:18.333Z,100167.84
2022-11-09T03:04:40.424Z,100159.25
2022-11-09T03:05:03.749Z,100172.69
2022-11-09T03:05:25.352Z,100155.69
2022-11-09T03:05:46.978Z,100158.25
2022-11-09T03:06:11.559Z,100167.94
2022-11-09T03:06:36.181Z,100157.19
2022-11-09T03:07:03.725Z,100172.22
2022-11-09T03:07:26.666Z,100164.16
2022-11-09T03:07:49.331Z,100164.94
2022-11-09T03:08:11.264Z,100171.25
2022-11-09T03:08:32.951Z,100168.56
2022-11-09T03:08:56.143Z,100162.81
2022-11-09T03:09:17.869Z,100163.19
2022-11-09T03:09:39.430Z,100161.38
2022-11-09T03:10:01.367Z,100165.78
2022-11-09T03:10:24.043Z,100158.06
2022-11-09T03:10:46.273Z,100164.81
2022-11-09T03:11:08.090Z,100169.22
2022-11-09T03:11:30.148Z,100162.13
2022-11-09T03:11:54.309Z,100162.25
2022-11-09T03:12:31.206Z,100162.13
2022-11-09T03:13:01.967Z,100164.69
2022-11-09T03:13:23.592Z,100162.88
2022-11-09T03:13:46.346Z,100163.72
2022-11-09T03:14:09.741Z,100160.31
2022-11-09T03:14:33.236Z,100168.25
2022-11-09T03:14:54.829Z,100166.41
2022-11-09T03:15:17.731Z,100168.16
2022-11-09T03:15:42.018Z,100168.16
2022-11-09T03:16:05.552Z,100150.63
2022-11-09T03:16:30.408Z,100161.03
2022-11-09T03:16:52.547Z,100160.41
2022-11-09T03:17:14.675Z,100162.13
2022-11-09T03:17:38.076Z,100158.59
2022-11-09T03:17:59.663Z,100167.38
2022-11-09T03:18:21.313Z,100161.38
2022-11-09T03:18:42.995Z,100151.81
2022-11-09T03:19:06.739Z,100157.94
2022-11-09T03:19:29.364Z,100161.38
2022-11-09T03:19:50.975Z,100170.31
2022-11-09T03:20:13.202Z,100173.94
2022-11-09T03:20:36.447Z,100167.94
2022-11-09T03:21:01.398Z,100169.44
2022-11-09T03:21:24.896Z,100171.16
2022-11-09T03:21:46.995Z,100173.00
2022-11-09T03:22:08.587Z,100177.28
2022-11-09T03:22:31.092Z,100174.56
2022-11-09T03:22:57.862Z,100170.06
2022-11-09T03:23:19.763Z,100171.91
2022-11-09T03:23:41.562Z,100166.41
2022-11-09T03:24:04.705Z,100172.56
2022-11-09T03:24:26.744Z,100167.28
2022-11-09T03:24:51.508Z,100176.31
2022-11-09T03:25:14.451Z,100169.88
2022-11-09T03:25:36.523Z,100179.75
2022-11-09T03:25:59.255Z,100171.78
2022-11-09T03:26:21.312Z,100168.25
2022-11-09T03:26:43.913Z,100164.59
2022-11-09T03:27:05.627Z,100171.69
2022-11-09T03:27:27.364Z,100169.00
2022-11-09T03:27:48.988Z,100169.88
2022-11-09T03:28:10.626Z,100170.72
2022-11-09T03:28:35.170Z,100174.16
2022-11-09T03:28:57.088Z,100149.13
2022-11-09T03:29:18.740Z,100167.91
2022-11-09T03:29:40.396Z,100167.91
2022-11-09T03:30:02.011Z,100172.44
2022-11-09T03:30:25.691Z,100177.16
2022-11-09T03:30:47.479Z,100178.03
2022-11-09T03:31:09.244Z,100176.09
2022-11-09T03:31:31.015Z,100171.69
2022-11-09T03:31:58.697Z,100169.88
2022-11-09T03:32:20.577Z,100169.88
2022-11-09T03:32:45.650Z,100171.69
2022-11-09T03:33:10.111Z,100171.59
2022-11-09T03:33:33.622Z,100176.84
2022-11-09T03:33:55.449Z,100178.56
2022-11-09T03:34:17.094Z,100165.34
2022-11-09T03:34:38.773Z,100173.28
2022-11-09T03:35:01.347Z,100167.81
2022-11-09T03:35:22.952Z,100170.84
2022-11-09T03:35:44.627Z,100173.63
2022-11-09T03:36:09.237Z,100169.22
2022-11-09T03:36:33.167Z,100171.16
2022-11-09T03:36:54.756Z,100176.44
2022-11-09T03:37:17.759Z,100179.13
2022-11-09T03:37:39.346Z,100176.53
2022-11-09T03:38:02.063Z,100174.56
2022-11-09T03:38:24.059Z,100177.16
2022-11-09T03:38:45.638Z,100183.50
2022-11-09T03:39:07.258Z,100171.78
2022-11-09T03:39:28.875Z,100179.84
2022-11-09T03:39:52.275Z,100171.25
2022-11-09T03:40:13.841Z,100177.28
2022-11-09T03:40:35.880Z,100183.41
2022-11-09T03:40:59.395Z,100182.53
2022-11-09T03:41:21.014Z,100184.25
2022-11-09T03:41:43.641Z,100170.06
2022-11-09T03:42:05.277Z,100185.13
2022-11-09T03:42:26.987Z,100190.50
2022-11-09T03:42:49.273Z,100181.47
2022-11-09T03:43:11.801Z,100181.56
2022-11-09T03:43:33.352Z,100188.78
2022-11-09T03:43:54.928Z,100183.41
2022-11-09T03:44:16.467Z,100173.63
2022-11-09T03:44:38.073Z,100177.28
2022-11-09T03:45:00.615Z,100185.22
2022-11-09T03:45:22.276Z,100186.19
2022-11-09T03:45:44.035Z,100182.78
2022-11-09T03:46:05.859Z,100183.63
2022-11-09T03:46:27.403Z,100184.38
2022-11-09T03:46:49.880Z,100186.31
2022-11-09T03:47:11.423Z,100181.91
2022-11-09T03:47:32.982Z,100174.81
2022-11-09T03:47:56.872Z,100177.41
2022-11-09T03:48:19.430Z,100185.13
2022-11-09T03:48:40.992Z,100184.38
2022-11-09T03:49:02.565Z,100186.19
2022-11-09T03:49:24.169Z,100184.78
2022-11-09T03:49:45.702Z,100174.19
2022-11-09T03:50:09.290Z,100178.25
2022-11-09T03:50:32.758Z,100188.16
2022-11-09T03:50:54.332Z,100184.38
2022-11-09T03:51:15.901Z,100188.78
2022-11-09T03:51:39.783Z,100191.38
2022-11-09T03:52:01.359Z,100193.28
2022-11-09T03:52:22.895Z,100188.88
2022-11-09T03:52:45.493Z,100194.16
2022-11-09T03:53:09.470Z,100194.06
2022-11-09T03:53:31.064Z,100188.78
2022-11-09T03:53:52.672Z,100192.22
2022-11-09T03:54:14.248Z,100185.13
2022-11-09T03:54:36.779Z,100193.09
2022-11-09T03:54:58.389Z,100189.31
2022-11-09T03:55:20.255Z,100186.00
2022-11-09T03:55:41.799Z,100191.22
2022-11-09T03:56:04.391Z,100187.72
2022-11-09T03:56:25.966Z,100186.84
2022-11-09T03:56:47.528Z,100188.53
2022-11-09T03:57:09.076Z,100190.41
2022-11-09T03:57:31.684Z,100181.69
2022-11-09T03:57:53.411Z,100193.28
2022-11-09T03:58:14.952Z,100191.69
2022-11-09T03:58:36.575Z,100182.09
2022-11-09T03:58:59.122Z,100194.47
2022-11-09T03:59:20.792Z,100188.34
2022-11-09T03:59:42.372Z,100189.09
2022-11-09T04:00:05.406Z,100191.03
2022-11-09T04:00:35.783Z,100179.88
2022-11-09T04:00:57.354Z,100182.09
2022-11-09T04:01:18.992Z,100184.06
2022-11-09T04:01:41.655Z,100190.94
2022-11-09T04:02:03.338Z,100196.31
2022-11-09T04:02:24.961Z,100188.16
2022-11-09T04:02:46.623Z,100194.47
2022-11-09T04:03:09.216Z,100186.41
2022-11-09T04:03:30.831Z,100194.38
2022-11-09T04:03:52.468Z,100191.69
2022-11-09T04:04:14.069Z,100192.66
2022-11-09T04:04:36.618Z,100197.94
2022-11-09T04:04:58.178Z,100198.22
2022-11-09T04:05:20.142Z,100196.53
2022-11-09T04:05:42.759Z,100195.53
2022-11-09T04:06:04.763Z,100197.25
2022-11-09T04:06:26.394Z,100201.69
2022-11-09T04:06:49.364Z,100197.25
2022-11-09T04:07:12.444Z,100199.31
2022-11-09T04:07:34.014Z,100196.53
2022-11-09T04:07:56.694Z,100202.63
2022-11-09T04:08:18.479Z,100192.66
2022-11-09T04:08:41.040Z,100202.44
2022-11-09T04:09:03.021Z,100192.03
2022-11-09T04:09:24.630Z,100194.81
2022-11-09T04:09:47.155Z,100188.56
2022-11-09T04:10:08.771Z,100194.03
2022-11-09T04:10:30.343Z,100192.97
2022-11-09T04:10:52.160Z,100192.22
2022-11-09T04:11:14.689Z,100188.81
2022-11-09T04:11:36.228Z,100198.56
2022-11-09T04:11:57.794Z,100198.56
2022-11-09T04:12:19.367Z,100198.56
2022-11-09T04:12:41.954Z,100193.31
2022-11-09T04:13:03.542Z,100191.25
2022-11-09T04:13:25.325Z,100192.34
2022-11-09T04:13:47.410Z,100197.50
2022-11-09T04:14:09.950Z,100199.31
2022-11-09T04:14:31.783Z,100196.63
2022-11-09T04:14:53.900Z,100205.56
2022-11-09T04:15:15.978Z,100194.03
2022-11-09T04:15:38.581Z,100200.41
2022-11-09T04:16:00.116Z,100198.44
2022-11-09T04:16:21.738Z,100200.91
2022-11-09T04:16:43.278Z,100200.09
2022-11-09T04:17:04.838Z,100200.19
2022-11-09T04:17:27.382Z,100177.84
2022-11-09T04:17:56.708Z,100200.91
2022-11-09T04:18:18.291Z,100202.75
2022-11-09T04:18:39.922Z,100207.91
2022-11-09T04:19:02.481Z,100199.00
2022-11-09T04:19:24.809Z,100209.75
2022-11-09T04:19:46.418Z,100207.06
2022-11-09T04:20:09.326Z,100194.03
2022-11-09T04:20:32.234Z,100199.31
2022-11-09T04:20:54.936Z,100198.44
2022-11-09T04:21:20.191Z,100191.03
2022-11-09T04:21:44.507Z,100198.88
2022-11-09T04:22:07.625Z,100199.75
2022-11-09T04:22:30.171Z,100205.00